sensor_id;sensor_type;location;lat;lon;timestamp;pressure;altitude;pressure_sealevel;temperature;humidity
82290;BME280;71891;21.336;-157.724;2023-08-01T00:00:51;101511.91;;;34.06;25.11
82290;BME280;71891;21.336;-157.724;2023-08-01T00:03:16;101508.90;;;32.84;26.28
82290;BME280;71891;21.336;-157.724;2023-08-01T00:05:42;101506.75;;;33.45;25.57
82290;BME280;71891;21.336;-157.724;2023-08-01T00:08:08;101499.92;;;34.01;25.59
82290;BME280;71891;21.336;-157.724;2023-08-01T00:10:33;101495.00;;;33.22;26.06
82290;BME280;71891;21.336;-157.724;2023-08-01T00:12:59;101491.34;;;33.96;25.70
82290;BME280;71891;21.336;-157.724;2023-08-01T00:15:24;101497.42;;;33.65;26.31
82290;BME280;71891;21.336;-157.724;2023-08-01T00:17:50;101498.05;;;33.78;26.10
82290;BME280;71891;21.336;-157.724;2023-08-01T00:20:15;101495.73;;;33.67;26.74
82290;BME280;71891;21.336;-157.724;2023-08-01T00:22:41;101493.81;;;33.26;25.61
82290;BME280;71891;21.336;-157.724;2023-08-01T00:25:07;101498.72;;;33.61;26.33
82290;BME280;71891;21.336;-157.724;2023-08-01T00:27:32;101495.38;;;33.98;26.07
82290;BME280;71891;21.336;-157.724;2023-08-01T00:29:57;101490.94;;;33.90;25.92
82290;BME280;71891;21.336;-157.724;2023-08-01T00:32:23;101487.91;;;33.78;25.79
82290;BME280;71891;21.336;-157.724;2023-08-01T00:34:51;101490.41;;;33.45;26.15
82290;BME280;71891;21.336;-157.724;2023-08-01T00:37:14;101482.02;;;34.69;25.28
82290;BME280;71891;21.336;-157.724;2023-08-01T00:39:40;101488.75;;;33.44;26.31
82290;BME280;71891;21.336;-157.724;2023-08-01T00:42:06;101485.04;;;33.76;26.32
82290;BME280;71891;21.336;-157.724;2023-08-01T00:44:31;101475.37;;;33.38;26.51
82290;BME280;71891;21.336;-157.724;2023-08-01T00:46:56;101467.94;;;34.00;26.24
82290;BME280;71891;21.336;-157.724;2023-08-01T00:49:22;101464.88;;;33.12;26.45
82290;BME280;71891;21.336;-157.724;2023-08-01T00:51:48;101464.07;;;33.43;26.56
82290;BME280;71891;21.336;-157.724;2023-08-01T00:54:13;101462.20;;;33.97;25.93
82290;BME280;71891;21.336;-157.724;2023-08-01T00:56:39;101465.93;;;33.22;26.61
82290;BME280;71891;21.336;-157.724;2023-08-01T00:59:05;101460.12;;;33.58;26.41
82290;BME280;71891;21.336;-157.724;2023-08-01T01:01:30;101459.47;;;34.13;25.88
82290;BME280;71891;21.336;-157.724;2023-08-01T01:03:55;101448.57;;;34.35;25.47
82290;BME280;71891;21.336;-157.724;2023-08-01T01:06:24;101447.57;;;33.87;25.98
82290;BME280;71891;21.336;-157.724;2023-08-01T01:08:48;101442.22;;;34.56;25.31
82290;BME280;71891;21.336;-157.724;2023-08-01T01:11:12;101435.97;;;32.39;27.42
82290;BME280;71891;21.336;-157.724;2023-08-01T01:13:38;101435.00;;;33.94;26.34
82290;BME280;71891;21.336;-157.724;2023-08-01T01:16:03;101435.37;;;33.57;26.15
82290;BME280;71891;21.336;-157.724;2023-08-01T01:18:29;101441.35;;;33.86;26.71
82290;BME280;71891;21.336;-157.724;2023-08-01T01:20:54;101445.35;;;33.71;26.52
82290;BME280;71891;21.336;-157.724;2023-08-01T01:23:21;101442.83;;;33.90;26.50
82290;BME280;71891;21.336;-157.724;2023-08-01T01:25:46;101443.88;;;33.97;26.69
82290;BME280;71891;21.336;-157.724;2023-08-01T01:28:13;101456.65;;;33.34;27.08
82290;BME280;71891;21.336;-157.724;2023-08-01T01:30:37;101449.62;;;33.96;26.69
82290;BME280;71891;21.336;-157.724;2023-08-01T01:33:03;101453.42;;;33.71;26.74
82290;BME280;71891;21.336;-157.724;2023-08-01T01:35:28;101455.52;;;33.62;26.08
82290;BME280;71891;21.336;-157.724;2023-08-01T01:37:53;101461.25;;;34.15;25.63
82290;BME280;71891;21.336;-157.724;2023-08-01T01:40:19;101459.28;;;34.14;25.22
82290;BME280;71891;21.336;-157.724;2023-08-01T01:42:45;101463.97;;;34.21;25.71
82290;BME280;71891;21.336;-157.724;2023-08-01T01:45:10;101470.25;;;33.10;26.27
82290;BME280;71891;21.336;-157.724;2023-08-01T01:47:35;101473.83;;;33.63;26.48
82290;BME280;71891;21.336;-157.724;2023-08-01T01:50:01;101468.68;;;33.72;25.66
82290;BME280;71891;21.336;-157.724;2023-08-01T01:52:27;101464.60;;;32.49;27.00
82290;BME280;71891;21.336;-157.724;2023-08-01T01:54:52;101460.58;;;33.92;25.83
82290;BME280;71891;21.336;-157.724;2023-08-01T01:57:18;101460.05;;;33.44;25.97
82290;BME280;71891;21.336;-157.724;2023-08-01T01:59:43;101465.95;;;33.83;25.23
82290;BME280;71891;21.336;-157.724;2023-08-01T02:02:09;101463.37;;;34.90;25.02
82290;BME280;71891;21.336;-157.724;2023-08-01T02:04:34;101468.77;;;33.11;26.81
82290;BME280;71891;21.336;-157.724;2023-08-01T02:07:00;101463.38;;;33.46;26.37
82290;BME280;71891;21.336;-157.724;2023-08-01T02:09:26;101455.72;;;31.76;27.95
82290;BME280;71891;21.336;-157.724;2023-08-01T02:11:51;101455.56;;;32.22;27.89
82290;BME280;71891;21.336;-157.724;2023-08-01T02:14:17;101451.97;;;31.87;28.44
82290;BME280;71891;21.336;-157.724;2023-08-01T02:16:42;101444.62;;;31.54;28.60
82290;BME280;71891;21.336;-157.724;2023-08-01T02:19:08;101443.14;;;32.27;27.96
82290;BME280;71891;21.336;-157.724;2023-08-01T02:21:33;101438.87;;;32.16;27.87
82290;BME280;71891;21.336;-157.724;2023-08-01T02:23:59;101435.01;;;31.49;28.53
82290;BME280;71891;21.336;-157.724;2023-08-01T02:26:25;101438.59;;;31.89;27.64
82290;BME280;71891;21.336;-157.724;2023-08-01T02:28:50;101441.32;;;32.10;27.74
82290;BME280;71891;21.336;-157.724;2023-08-01T02:31:16;101441.54;;;31.51;28.17
82290;BME280;71891;21.336;-157.724;2023-08-01T02:33:42;101450.94;;;31.45;28.70
82290;BME280;71891;21.336;-157.724;2023-08-01T02:36:07;101448.68;;;32.63;27.74
82290;BME280;71891;21.336;-157.724;2023-08-01T02:38:32;101445.98;;;31.90;28.41
82290;BME280;71891;21.336;-157.724;2023-08-01T02:40:58;101454.15;;;31.96;28.25
82290;BME280;71891;21.336;-157.724;2023-08-01T02:43:24;101453.38;;;32.09;27.76
82290;BME280;71891;21.336;-157.724;2023-08-01T02:45:49;101460.73;;;32.19;27.62
82290;BME280;71891;21.336;-157.724;2023-08-01T02:48:15;101464.32;;;31.41;29.41
82290;BME280;71891;21.336;-157.724;2023-08-01T02:50:40;101455.55;;;32.29;28.40
82290;BME280;71891;21.336;-157.724;2023-08-01T02:53:06;101459.98;;;32.16;29.26
82290;BME280;71891;21.336;-157.724;2023-08-01T02:55:31;101462.84;;;31.34;29.32
82290;BME280;71891;21.336;-157.724;2023-08-01T02:57:57;101465.50;;;30.96;29.56
82290;BME280;71891;21.336;-157.724;2023-08-01T03:00:22;101472.39;;;31.31;29.59
82290;BME280;71891;21.336;-157.724;2023-08-01T03:02:48;101475.04;;;31.65;29.56
82290;BME280;71891;21.336;-157.724;2023-08-01T03:05:13;101477.37;;;31.26;29.40
82290;BME280;71891;21.336;-157.724;2023-08-01T03:07:39;101474.35;;;32.17;28.20
82290;BME280;71891;21.336;-157.724;2023-08-01T03:10:05;101478.23;;;30.52;29.77
82290;BME280;71891;21.336;-157.724;2023-08-01T03:12:30;101476.54;;;31.61;29.43
82290;BME280;71891;21.336;-157.724;2023-08-01T03:14:56;101479.15;;;30.98;29.11
82290;BME280;71891;21.336;-157.724;2023-08-01T03:17:22;101479.68;;;30.81;30.20
82290;BME280;71891;21.336;-157.724;2023-08-01T03:19:48;101480.03;;;31.19;30.09
82290;BME280;71891;21.336;-157.724;2023-08-01T03:22:12;101481.01;;;30.66;30.00
82290;BME280;71891;21.336;-157.724;2023-08-01T03:24:38;101478.85;;;30.62;29.54
82290;BME280;71891;21.336;-157.724;2023-08-01T03:27:04;101470.70;;;31.58;29.19
82290;BME280;71891;21.336;-157.724;2023-08-01T03:29:29;101476.31;;;31.10;29.88
82290;BME280;71891;21.336;-157.724;2023-08-01T03:31:55;101478.06;;;31.46;29.85
82290;BME280;71891;21.336;-157.724;2023-08-01T03:34:20;101478.78;;;29.29;31.24
82290;BME280;71891;21.336;-157.724;2023-08-01T03:36:46;101482.83;;;30.86;30.66
82290;BME280;71891;21.336;-157.724;2023-08-01T03:39:11;101482.01;;;30.77;30.78
82290;BME280;71891;21.336;-157.724;2023-08-01T03:41:37;101480.29;;;30.10;31.05
82290;BME280;71891;21.336;-157.724;2023-08-01T03:44:02;101478.21;;;30.64;31.22
82290;BME280;71891;21.336;-157.724;2023-08-01T03:46:28;101478.34;;;30.73;31.13
82290;BME280;71891;21.336;-157.724;2023-08-01T03:48:54;101482.76;;;31.00;30.42
82290;BME280;71891;21.336;-157.724;2023-08-01T03:51:19;101483.13;;;30.38;31.29
82290;BME280;71891;21.336;-157.724;2023-08-01T03:53:45;101481.48;;;29.83;31.70
82290;BME280;71891;21.336;-157.724;2023-08-01T03:56:11;101478.16;;;30.30;31.28
82290;BME280;71891;21.336;-157.724;2023-08-01T03:58:36;101483.41;;;30.81;30.55
82290;BME280;71891;21.336;-157.724;2023-08-01T04:01:02;101485.10;;;31.11;30.55
82290;BME280;71891;21.336;-157.724;2023-08-01T04:03:27;101488.11;;;31.06;30.40
82290;BME280;71891;21.336;-157.724;2023-08-01T04:05:53;101483.42;;;29.99;31.08
82290;BME280;71891;21.336;-157.724;2023-08-01T04:08:19;101488.09;;;30.11;30.93
82290;BME280;71891;21.336;-157.724;2023-08-01T04:10:44;101488.62;;;30.90;29.81
82290;BME280;71891;21.336;-157.724;2023-08-01T04:13:10;101493.25;;;31.64;29.42
82290;BME280;71891;21.336;-157.724;2023-08-01T04:15:35;101498.33;;;31.51;29.16
82290;BME280;71891;21.336;-157.724;2023-08-01T04:18:01;101499.51;;;30.53;29.94
82290;BME280;71891;21.336;-157.724;2023-08-01T04:20:26;101501.85;;;29.99;30.96
82290;BME280;71891;21.336;-157.724;2023-08-01T04:22:52;101513.05;;;31.21;30.17
82290;BME280;71891;21.336;-157.724;2023-08-01T04:25:18;101510.72;;;29.98;30.99
82290;BME280;71891;21.336;-157.724;2023-08-01T04:27:43;101510.74;;;30.50;30.92
82290;BME280;71891;21.336;-157.724;2023-08-01T04:30:10;101515.76;;;30.34;30.91
82290;BME280;71891;21.336;-157.724;2023-08-01T04:32:35;101511.95;;;30.01;30.95
82290;BME280;71891;21.336;-157.724;2023-08-01T04:35:00;101512.09;;;29.96;31.03
82290;BME280;71891;21.336;-157.724;2023-08-01T04:37:26;101509.71;;;30.85;30.77
82290;BME280;71891;21.336;-157.724;2023-08-01T04:39:51;101512.57;;;30.23;31.04
82290;BME280;71891;21.336;-157.724;2023-08-01T04:42:17;101516.08;;;30.46;30.85
82290;BME280;71891;21.336;-157.724;2023-08-01T04:44:43;101518.79;;;30.19;30.76
82290;BME280;71891;21.336;-157.724;2023-08-01T04:47:08;101516.66;;;30.49;31.05
82290;BME280;71891;21.336;-157.724;2023-08-01T04:49:34;101521.10;;;29.82;31.31
82290;BME280;71891;21.336;-157.724;2023-08-01T04:51:59;101522.73;;;30.66;30.85
82290;BME280;71891;21.336;-157.724;2023-08-01T04:54:25;101521.48;;;30.36;31.15
82290;BME280;71891;21.336;-157.724;2023-08-01T04:56:50;101532.16;;;30.24;30.99
82290;BME280;71891;21.336;-157.724;2023-08-01T04:59:16;101526.76;;;30.43;31.23
82290;BME280;71891;21.336;-157.724;2023-08-01T05:01:41;101530.46;;;31.15;30.35
82290;BME280;71891;21.336;-157.724;2023-08-01T05:04:07;101532.67;;;30.15;31.15
82290;BME280;71891;21.336;-157.724;2023-08-01T05:06:33;101537.59;;;29.84;31.28
82290;BME280;71891;21.336;-157.724;2023-08-01T05:08:58;101538.32;;;30.29;31.54
82290;BME280;71891;21.336;-157.724;2023-08-01T05:11:23;101541.77;;;30.00;31.26
82290;BME280;71891;21.336;-157.724;2023-08-01T05:13:49;101544.15;;;30.15;31.35
82290;BME280;71891;21.336;-157.724;2023-08-01T05:16:15;101547.95;;;29.65;31.69
82290;BME280;71891;21.336;-157.724;2023-08-01T05:18:40;101555.46;;;29.48;32.44
82290;BME280;71891;21.336;-157.724;2023-08-01T05:21:06;101556.34;;;30.73;31.18
82290;BME280;71891;21.336;-157.724;2023-08-01T05:23:32;101560.74;;;30.25;31.72
82290;BME280;71891;21.336;-157.724;2023-08-01T05:25:57;101563.32;;;30.48;31.53
82290;BME280;71891;21.336;-157.724;2023-08-01T05:28:23;101571.54;;;30.15;31.81
82290;BME280;71891;21.336;-157.724;2023-08-01T05:30:49;101572.45;;;29.87;31.94
82290;BME280;71891;21.336;-157.724;2023-08-01T05:33:14;101574.14;;;30.07;31.95
82290;BME280;71891;21.336;-157.724;2023-08-01T05:35:40;101572.51;;;29.93;31.36
82290;BME280;71891;21.336;-157.724;2023-08-01T05:38:05;101573.13;;;30.00;31.84
82290;BME280;71891;21.336;-157.724;2023-08-01T05:40:31;101581.13;;;30.04;31.49
82290;BME280;71891;21.336;-157.724;2023-08-01T05:42:57;101585.36;;;30.00;31.77
82290;BME280;71891;21.336;-157.724;2023-08-01T05:45:22;101586.21;;;29.85;31.55
82290;BME280;71891;21.336;-157.724;2023-08-01T05:47:48;101583.97;;;29.82;31.57
82290;BME280;71891;21.336;-157.724;2023-08-01T05:50:14;101584.48;;;29.40;31.74
82290;BME280;71891;21.336;-157.724;2023-08-01T05:52:39;101586.92;;;29.96;31.44
82290;BME280;71891;21.336;-157.724;2023-08-01T05:57:31;101600.88;;;30.32;31.02
82290;BME280;71891;21.336;-157.724;2023-08-01T05:59:56;101599.37;;;29.62;31.11
82290;BME280;71891;21.336;-157.724;2023-08-01T06:02:22;101599.54;;;29.94;31.40
82290;BME280;71891;21.336;-157.724;2023-08-01T06:04:47;101596.67;;;29.15;31.28
82290;BME280;71891;21.336;-157.724;2023-08-01T06:07:13;101603.16;;;29.93;31.59
82290;BME280;71891;21.336;-157.724;2023-08-01T06:09:38;101605.10;;;28.75;32.26
82290;BME280;71891;21.336;-157.724;2023-08-01T06:12:05;101606.83;;;29.23;31.97
82290;BME280;71891;21.336;-157.724;2023-08-01T06:14:30;101603.22;;;29.36;32.39
82290;BME280;71891;21.336;-157.724;2023-08-01T06:16:55;101604.30;;;28.94;32.93
82290;BME280;71891;21.336;-157.724;2023-08-01T06:19:21;101607.93;;;28.52;32.08
82290;BME280;71891;21.336;-157.724;2023-08-01T06:21:47;101608.61;;;29.24;31.90
82290;BME280;71891;21.336;-157.724;2023-08-01T06:24:12;101608.99;;;30.06;31.71
82290;BME280;71891;21.336;-157.724;2023-08-01T06:26:37;101608.76;;;29.56;31.69
82290;BME280;71891;21.336;-157.724;2023-08-01T06:29:03;101611.49;;;29.44;32.16
82290;BME280;71891;21.336;-157.724;2023-08-01T06:31:29;101607.40;;;28.76;32.41
82290;BME280;71891;21.336;-157.724;2023-08-01T06:33:54;101610.91;;;28.93;32.57
82290;BME280;71891;21.336;-157.724;2023-08-01T06:36:20;101613.16;;;29.31;32.40
82290;BME280;71891;21.336;-157.724;2023-08-01T06:38:46;101608.17;;;29.07;32.66
82290;BME280;71891;21.336;-157.724;2023-08-01T06:41:12;101611.42;;;29.09;32.36
82290;BME280;71891;21.336;-157.724;2023-08-01T06:43:37;101605.47;;;29.32;32.28
82290;BME280;71891;21.336;-157.724;2023-08-01T06:46:03;101601.83;;;29.52;32.24
82290;BME280;71891;21.336;-157.724;2023-08-01T06:48:28;101603.98;;;28.55;32.79
82290;BME280;71891;21.336;-157.724;2023-08-01T06:50:54;101609.22;;;29.23;31.69
82290;BME280;71891;21.336;-157.724;2023-08-01T06:53:20;101611.19;;;29.10;32.21
82290;BME280;71891;21.336;-157.724;2023-08-01T06:55:46;101613.84;;;28.81;32.55
82290;BME280;71891;21.336;-157.724;2023-08-01T06:58:11;101613.92;;;29.29;32.04
82290;BME280;71891;21.336;-157.724;2023-08-01T07:00:37;101613.08;;;29.18;31.98
82290;BME280;71891;21.336;-157.724;2023-08-01T07:03:02;101610.76;;;29.54;32.34
82290;BME280;71891;21.336;-157.724;2023-08-01T07:05:28;101612.70;;;29.13;32.08
82290;BME280;71891;21.336;-157.724;2023-08-01T07:07:54;101613.68;;;28.84;32.66
82290;BME280;71891;21.336;-157.724;2023-08-01T07:10:19;101616.72;;;29.19;32.58
82290;BME280;71891;21.336;-157.724;2023-08-01T07:12:45;101618.91;;;29.12;32.36
82290;BME280;71891;21.336;-157.724;2023-08-01T07:15:11;101620.47;;;28.83;32.65
82290;BME280;71891;21.336;-157.724;2023-08-01T07:17:36;101624.25;;;29.63;32.24
82290;BME280;71891;21.336;-157.724;2023-08-01T07:20:02;101620.30;;;28.41;33.19
82290;BME280;71891;21.336;-157.724;2023-08-01T07:22:27;101618.85;;;29.45;32.72
82290;BME280;71891;21.336;-157.724;2023-08-01T07:24:55;101621.59;;;27.88;33.11
82290;BME280;71891;21.336;-157.724;2023-08-01T07:27:19;101615.15;;;29.30;32.66
82290;BME280;71891;21.336;-157.724;2023-08-01T07:29:44;101625.87;;;28.52;33.09
82290;BME280;71891;21.336;-157.724;2023-08-01T07:32:10;101631.09;;;28.45;32.96
82290;BME280;71891;21.336;-157.724;2023-08-01T07:34:36;101636.34;;;28.33;33.20
82290;BME280;71891;21.336;-157.724;2023-08-01T07:37:01;101643.60;;;28.47;32.89
82290;BME280;71891;21.336;-157.724;2023-08-01T07:39:27;101641.70;;;28.52;32.78
82290;BME280;71891;21.336;-157.724;2023-08-01T07:41:53;101642.73;;;29.22;30.69
82290;BME280;71891;21.336;-157.724;2023-08-01T07:44:18;101643.99;;;31.24;28.89
82290;BME280;71891;21.336;-157.724;2023-08-01T07:46:44;101640.99;;;29.71;30.84
82290;BME280;71891;21.336;-157.724;2023-08-01T07:49:09;101644.25;;;29.33;31.04
82290;BME280;71891;21.336;-157.724;2023-08-01T07:51:35;101641.70;;;30.00;30.79
82290;BME280;71891;21.336;-157.724;2023-08-01T07:54:01;101640.47;;;28.59;32.47
82290;BME280;71891;21.336;-157.724;2023-08-01T07:56:27;101646.03;;;28.57;32.25
82290;BME280;71891;21.336;-157.724;2023-08-01T07:58:52;101651.61;;;28.71;32.64
82290;BME280;71891;21.336;-157.724;2023-08-01T08:01:18;101655.29;;;29.42;32.36
82290;BME280;71891;21.336;-157.724;2023-08-01T08:03:43;101654.89;;;29.00;32.37
82290;BME280;71891;21.336;-157.724;2023-08-01T08:06:09;101664.93;;;28.15;33.64
82290;BME280;71891;21.336;-157.724;2023-08-01T08:08:35;101662.49;;;27.81;33.79
82290;BME280;71891;21.336;-157.724;2023-08-01T08:11:00;101664.34;;;28.80;33.12
82290;BME280;71891;21.336;-157.724;2023-08-01T08:13:26;101663.00;;;28.24;32.93
82290;BME280;71891;21.336;-157.724;2023-08-01T08:15:52;101665.24;;;28.47;33.18
82290;BME280;71891;21.336;-157.724;2023-08-01T08:18:17;101666.88;;;28.63;32.49
82290;BME280;71891;21.336;-157.724;2023-08-01T08:20:44;101665.82;;;29.00;32.60
82290;BME280;71891;21.336;-157.724;2023-08-01T08:23:09;101676.90;;;28.12;33.53
82290;BME280;71891;21.336;-157.724;2023-08-01T08:25:35;101674.20;;;29.37;32.67
82290;BME280;71891;21.336;-157.724;2023-08-01T08:28:00;101680.02;;;28.19;33.34
82290;BME280;71891;21.336;-157.724;2023-08-01T08:30:26;101682.16;;;28.13;33.31
82290;BME280;71891;21.336;-157.724;2023-08-01T08:32:51;101682.89;;;28.70;32.85
82290;BME280;71891;21.336;-157.724;2023-08-01T08:35:17;101685.94;;;27.81;33.84
82290;BME280;71891;21.336;-157.724;2023-08-01T08:37:43;101682.54;;;28.20;33.63
82290;BME280;71891;21.336;-157.724;2023-08-01T08:40:09;101679.89;;;27.81;33.46
82290;BME280;71891;21.336;-157.724;2023-08-01T08:42:34;101683.22;;;28.49;33.13
82290;BME280;71891;21.336;-157.724;2023-08-01T08:45:02;101681.76;;;28.08;33.25
82290;BME280;71891;21.336;-157.724;2023-08-01T08:47:26;101675.74;;;28.44;32.80
82290;BME280;71891;21.336;-157.724;2023-08-01T08:49:52;101679.39;;;27.49;33.34
82290;BME280;71891;21.336;-157.724;2023-08-01T08:52:18;101683.84;;;28.62;32.60
82290;BME280;71891;21.336;-157.724;2023-08-01T08:54:43;101683.78;;;28.37;32.52
82290;BME280;71891;21.336;-157.724;2023-08-01T08:57:08;101683.94;;;28.24;32.65
82290;BME280;71891;21.336;-157.724;2023-08-01T08:59:34;101683.81;;;29.00;33.27
82290;BME280;71891;21.336;-157.724;2023-08-01T09:02:00;101680.49;;;28.66;33.55
82290;BME280;71891;21.336;-157.724;2023-08-01T09:04:25;101674.89;;;27.95;34.42
82290;BME280;71891;21.336;-157.724;2023-08-01T09:06:52;101681.39;;;28.21;33.63
82290;BME280;71891;21.336;-157.724;2023-08-01T09:09:16;101684.71;;;28.57;33.77
82290;BME280;71891;21.336;-157.724;2023-08-01T09:11:46;101683.95;;;27.63;34.32
82290;BME280;71891;21.336;-157.724;2023-08-01T09:14:08;101685.74;;;28.84;33.22
82290;BME280;71891;21.336;-157.724;2023-08-01T09:16:34;101681.31;;;28.24;33.97
82290;BME280;71891;21.336;-157.724;2023-08-01T09:18:59;101674.10;;;28.18;34.16
82290;BME280;71891;21.336;-157.724;2023-08-01T09:21:25;101671.80;;;28.50;34.08
82290;BME280;71891;21.336;-157.724;2023-08-01T09:23:50;101671.73;;;28.07;34.13
82290;BME280;71891;21.336;-157.724;2023-08-01T09:26:17;101670.53;;;27.82;34.63
82290;BME280;71891;21.336;-157.724;2023-08-01T09:28:42;101670.87;;;28.80;33.94
82290;BME280;71891;21.336;-157.724;2023-08-01T09:31:07;101677.68;;;28.83;33.54
82290;BME280;71891;21.336;-157.724;2023-08-01T09:33:38;101672.19;;;27.97;34.25
82290;BME280;71891;21.336;-157.724;2023-08-01T09:35:59;101671.54;;;27.91;34.08
82290;BME280;71891;21.336;-157.724;2023-08-01T09:38:24;101669.50;;;28.65;32.11
82290;BME280;71891;21.336;-157.724;2023-08-01T09:40:50;101658.75;;;30.00;31.20
82290;BME280;71891;21.336;-157.724;2023-08-01T09:43:16;101651.34;;;29.63;31.16
82290;BME280;71891;21.336;-157.724;2023-08-01T09:45:51;101653.70;;;30.48;30.26
82290;BME280;71891;21.336;-157.724;2023-08-01T09:48:07;101657.86;;;30.16;30.13
82290;BME280;71891;21.336;-157.724;2023-08-01T09:50:33;101661.10;;;30.90;29.69
82290;BME280;71891;21.336;-157.724;2023-08-01T09:53:08;101656.57;;;30.40;30.09
82290;BME280;71891;21.336;-157.724;2023-08-01T09:55:32;101664.43;;;30.52;30.53
82290;BME280;71891;21.336;-157.724;2023-08-01T09:57:51;101661.02;;;31.50;29.59
82290;BME280;71891;21.336;-157.724;2023-08-01T10:00:16;101657.71;;;29.47;31.14
82290;BME280;71891;21.336;-157.724;2023-08-01T10:02:43;101664.40;;;30.10;30.88
82290;BME280;71891;21.336;-157.724;2023-08-01T10:05:08;101662.15;;;29.65;30.88
82290;BME280;71891;21.336;-157.724;2023-08-01T10:07:33;101660.14;;;29.79;30.73
82290;BME280;71891;21.336;-157.724;2023-08-01T10:09:59;101656.93;;;30.82;29.73
82290;BME280;71891;21.336;-157.724;2023-08-01T10:12:26;101651.26;;;29.11;31.38
82290;BME280;71891;21.336;-157.724;2023-08-01T10:14:50;101650.48;;;30.62;29.90
82290;BME280;71891;21.336;-157.724;2023-08-01T10:17:15;101647.95;;;29.94;29.89
82290;BME280;71891;21.336;-157.724;2023-08-01T10:19:42;101644.66;;;30.37;30.68
82290;BME280;71891;21.336;-157.724;2023-08-01T10:22:07;101638.88;;;29.42;30.76
82290;BME280;71891;21.336;-157.724;2023-08-01T10:24:32;101638.72;;;29.49;31.37
82290;BME280;71891;21.336;-157.724;2023-08-01T10:26:58;101640.74;;;30.25;29.92
82290;BME280;71891;21.336;-157.724;2023-08-01T10:31:53;101633.38;;;29.94;30.21
82290;BME280;71891;21.336;-157.724;2023-08-01T10:34:15;101630.91;;;29.93;30.65
82290;BME280;71891;21.336;-157.724;2023-08-01T10:36:40;101634.73;;;29.79;30.44
82290;BME280;71891;21.336;-157.724;2023-08-01T10:39:06;101632.49;;;29.75;30.44
82290;BME280;71891;21.336;-157.724;2023-08-01T10:41:33;101629.22;;;30.79;29.74
82290;BME280;71891;21.336;-157.724;2023-08-01T10:44:07;101618.98;;;29.55;30.84
82290;BME280;71891;21.336;-157.724;2023-08-01T10:46:23;101616.91;;;29.97;30.53
82290;BME280;71891;21.336;-157.724;2023-08-01T10:48:51;101612.59;;;30.13;30.10
82290;BME280;71891;21.336;-157.724;2023-08-01T10:51:14;101610.73;;;29.94;30.54
82290;BME280;71891;21.336;-157.724;2023-08-01T10:53:40;101607.55;;;30.18;30.26
82290;BME280;71891;21.336;-157.724;2023-08-01T10:56:06;101603.94;;;30.88;29.71
82290;BME280;71891;21.336;-157.724;2023-08-01T10:58:31;101602.68;;;29.52;30.49
82290;BME280;71891;21.336;-157.724;2023-08-01T11:00:59;101602.13;;;29.73;30.27
82290;BME280;71891;21.336;-157.724;2023-08-01T11:03:23;101594.99;;;29.85;29.99
82290;BME280;71891;21.336;-157.724;2023-08-01T11:05:57;101590.21;;;29.69;30.46
82290;BME280;71891;21.336;-157.724;2023-08-01T11:08:14;101584.72;;;30.18;30.42
82290;BME280;71891;21.336;-157.724;2023-08-01T11:10:40;101585.40;;;30.70;30.06
82290;BME280;71891;21.336;-157.724;2023-08-01T11:13:05;101578.55;;;29.09;31.03
82290;BME280;71891;21.336;-157.724;2023-08-01T11:15:31;101577.54;;;28.96;31.43
82290;BME280;71891;21.336;-157.724;2023-08-01T11:17:57;101584.76;;;29.79;31.10
82290;BME280;71891;21.336;-157.724;2023-08-01T11:20:24;101584.06;;;29.20;31.63
82290;BME280;71891;21.336;-157.724;2023-08-01T11:22:53;101582.75;;;28.81;32.28
82290;BME280;71891;21.336;-157.724;2023-08-01T11:25:14;101579.94;;;29.23;31.65
82290;BME280;71891;21.336;-157.724;2023-08-01T11:27:39;101579.69;;;29.31;31.29
82290;BME280;71891;21.336;-157.724;2023-08-01T11:30:06;101578.33;;;29.29;31.27
82290;BME280;71891;21.336;-157.724;2023-08-01T11:32:35;101578.31;;;29.46;31.48
82290;BME280;71891;21.336;-157.724;2023-08-01T11:34:56;101582.15;;;29.14;31.28
82290;BME280;71891;21.336;-157.724;2023-08-01T11:37:25;101577.89;;;29.20;31.09
82290;BME280;71891;21.336;-157.724;2023-08-01T11:39:48;101574.80;;;29.03;31.08
82290;BME280;71891;21.336;-157.724;2023-08-01T11:42:16;101571.21;;;28.42;31.15
82290;BME280;71891;21.336;-157.724;2023-08-01T11:44:39;101572.60;;;29.76;30.11
82290;BME280;71891;21.336;-157.724;2023-08-01T11:47:11;101571.26;;;29.77;30.52
82290;BME280;71891;21.336;-157.724;2023-08-01T11:49:30;101570.76;;;30.04;30.87
82290;BME280;71891;21.336;-157.724;2023-08-01T11:51:56;101567.99;;;27.46;31.86
82290;BME280;71891;21.336;-157.724;2023-08-01T11:54:22;101563.10;;;29.36;30.97
82290;BME280;71891;21.336;-157.724;2023-08-01T11:56:48;101556.21;;;28.72;30.74
82290;BME280;71891;21.336;-157.724;2023-08-01T11:59:15;101558.81;;;29.01;31.65
82290;BME280;71891;21.336;-157.724;2023-08-01T12:01:39;101556.09;;;29.90;30.65
82290;BME280;71891;21.336;-157.724;2023-08-01T12:04:05;101565.32;;;29.74;30.40
82290;BME280;71891;21.336;-157.724;2023-08-01T12:06:32;101566.07;;;28.83;31.61
82290;BME280;71891;21.336;-157.724;2023-08-01T12:11:23;101556.22;;;28.88;31.22
82290;BME280;71891;21.336;-157.724;2023-08-01T12:13:48;101556.48;;;29.09;31.44
82290;BME280;71891;21.336;-157.724;2023-08-01T12:16:13;101551.99;;;29.56;30.63
82290;BME280;71891;21.336;-157.724;2023-08-01T12:18:39;101551.69;;;29.53;30.81